sensor_id;sensor_type;location;lat;lon;timestamp;temperature;humidity
17992;DHT22;9121;50.926;5.340;2022-12-18T00:02:14;-3.70;99.90
17992;DHT22;9121;50.926;5.340;2022-12-18T00:04:40;-3.80;99.90
17992;DHT22;9121;50.926;5.340;2022-12-18T00:07:09;-3.70;99.90
17992;DHT22;9121;50.926;5.340;2022-12-18T00:09:36;-3.70;99.90
17992;DHT22;9121;50.926;5.340;2022-12-18T00:12:03;-3.60;99.90
17992;DHT22;9121;50.926;5.340;2022-12-18T00:14:31;-3.60;99.90
17992;DHT22;9121;50.926;5.340;2022-12-18T00:16:58;-3.60;99.90
17992;DHT22;9121;50.926;5.340;2022-12-18T00:19:26;-3.70;99.90
17992;DHT22;9121;50.926;5.340;2022-12-18T00:21:53;-3.60;99.90
17992;DHT22;9121;50.926;5.340;2022-12-18T00:24:21;-3.60;99.90
17992;DHT22;9121;50.926;5.340;2022-12-18T00:26:48;-3.80;99.90
17992;DHT22;9121;50.926;5.340;2022-12-18T00:29:15;-3.80;99.90
17992;DHT22;9121;50.926;5.340;2022-12-18T00:31:42;-3.80;99.90
17992;DHT22;9121;50.926;5.340;2022-12-18T00:34:10;-4.00;99.90
17992;DHT22;9121;50.926;5.340;2022-12-18T00:36:38;-4.00;99.90
17992;DHT22;9121;50.926;5.340;2022-12-18T00:39:05;-4.10;99.90
17992;DHT22;9121;50.926;5.340;2022-12-18T00:41:34;-4.00;99.90
17992;DHT22;9121;50.926;5.340;2022-12-18T00:44:18;-4.20;99.90
17992;DHT22;9121;50.926;5.340;2022-12-18T00:46:47;-4.20;99.90
17992;DHT22;9121;50.926;5.340;2022-12-18T00:49:15;-4.20;99.90
17992;DHT22;9121;50.926;5.340;2022-12-18T00:51:42;-4.20;99.90
17992;DHT22;9121;50.926;5.340;2022-12-18T00:54:09;-4.20;99.90
17992;DHT22;9121;50.926;5.340;2022-12-18T00:56:38;-4.20;99.90
17992;DHT22;9121;50.926;5.340;2022-12-18T00:59:05;-4.20;99.90
17992;DHT22;9121;50.926;5.340;2022-12-18T01:01:32;-4.10;99.90
17992;DHT22;9121;50.926;5.340;2022-12-18T01:04:00;-4.00;99.90
17992;DHT22;9121;50.926;5.340;2022-12-18T01:06:27;-4.00;99.90
17992;DHT22;9121;50.926;5.340;2022-12-18T01:08:54;-4.00;99.90
17992;DHT22;9121;50.926;5.340;2022-12-18T01:11:22;-4.10;99.90
17992;DHT22;9121;50.926;5.340;2022-12-18T01:13:52;-4.20;99.90
17992;DHT22;9121;50.926;5.340;2022-12-18T01:16:19;-4.30;99.90
17992;DHT22;9121;50.926;5.340;2022-12-18T01:18:46;-4.40;99.90
17992;DHT22;9121;50.926;5.340;2022-12-18T01:21:15;-4.40;99.90
17992;DHT22;9121;50.926;5.340;2022-12-18T01:23:45;-4.30;99.90
17992;DHT22;9121;50.926;5.340;2022-12-18T01:26:15;-4.30;99.90
17992;DHT22;9121;50.926;5.340;2022-12-18T01:28:43;-4.20;99.90
17992;DHT22;9121;50.926;5.340;2022-12-18T01:31:17;-4.20;99.90
17992;DHT22;9121;50.926;5.340;2022-12-18T01:33:45;-4.20;99.90
17992;DHT22;9121;50.926;5.340;2022-12-18T01:36:17;-4.30;99.90
17992;DHT22;9121;50.926;5.340;2022-12-18T01:38:44;-4.20;99.90
17992;DHT22;9121;50.926;5.340;2022-12-18T01:41:12;-4.10;99.90
17992;DHT22;9121;50.926;5.340;2022-12-18T01:43:44;-4.00;99.90
17992;DHT22;9121;50.926;5.340;2022-12-18T01:46:12;-3.90;99.90
17992;DHT22;9121;50.926;5.340;2022-12-18T01:48:41;-4.00;99.90
17992;DHT22;9121;50.926;5.340;2022-12-18T01:51:10;-4.00;99.90
17992;DHT22;9121;50.926;5.340;2022-12-18T01:53:39;-4.10;99.90
17992;DHT22;9121;50.926;5.340;2022-12-18T01:56:07;-4.10;99.90
17992;DHT22;9121;50.926;5.340;2022-12-18T01:58:39;-4.10;99.90
17992;DHT22;9121;50.926;5.340;2022-12-18T02:01:08;-4.10;99.90
17992;DHT22;9121;50.926;5.340;2022-12-18T02:03:35;-4.10;99.90
17992;DHT22;9121;50.926;5.340;2022-12-18T02:06:07;-4.20;99.90
17992;DHT22;9121;50.926;5.340;2022-12-18T02:08:43;-4.20;99.90
17992;DHT22;9121;50.926;5.340;2022-12-18T02:11:20;-4.30;99.90
17992;DHT22;9121;50.926;5.340;2022-12-18T02:13:54;-4.30;99.90
17992;DHT22;9121;50.926;5.340;2022-12-18T02:16:32;-4.20;99.90
17992;DHT22;9121;50.926;5.340;2022-12-18T02:19:06;-4.20;99.90
17992;DHT22;9121;50.926;5.340;2022-12-18T02:21:43;-4.30;99.90
17992;DHT22;9121;50.926;5.340;2022-12-18T02:24:20;-4.30;99.90
17992;DHT22;9121;50.926;5.340;2022-12-18T02:26:55;-4.30;99.90
17992;DHT22;9121;50.926;5.340;2022-12-18T02:29:25;-4.30;99.90
17992;DHT22;9121;50.926;5.340;2022-12-18T02:31:56;-4.30;99.90
17992;DHT22;9121;50.926;5.340;2022-12-18T02:34:28;-4.30;99.90
17992;DHT22;9121;50.926;5.340;2022-12-18T02:36:57;-4.20;99.90
17992;DHT22;9121;50.926;5.340;2022-12-18T02:39:26;-4.20;99.90
17992;DHT22;9121;50.926;5.340;2022-12-18T02:41:56;-4.20;99.90
17992;DHT22;9121;50.926;5.340;2022-12-18T02:44:24;-4.20;99.90
17992;DHT22;9121;50.926;5.340;2022-12-18T02:46:52;-4.10;99.90
17992;DHT22;9121;50.926;5.340;2022-12-18T02:49:31;-4.00;99.90
17992;DHT22;9121;50.926;5.340;2022-12-18T02:52:07;-3.90;99.90
17992;DHT22;9121;50.926;5.340;2022-12-18T02:54:55;-4.10;99.90
17992;DHT22;9121;50.926;5.340;2022-12-18T02:57:33;-4.30;99.90
17992;DHT22;9121;50.926;5.340;2022-12-18T03:00:05;-4.40;99.90
17992;DHT22;9121;50.926;5.340;2022-12-18T03:02:37;-4.40;99.90
17992;DHT22;9121;50.926;5.340;2022-12-18T03:05:11;-4.40;99.90
17992;DHT22;9121;50.926;5.340;2022-12-18T03:07:43;-4.30;99.90
17992;DHT22;9121;50.926;5.340;2022-12-18T03:10:16;-4.30;99.90
17992;DHT22;9121;50.926;5.340;2022-12-18T03:12:50;-4.20;99.90
17992;DHT22;9121;50.926;5.340;2022-12-18T03:15:22;-4.20;99.90
17992;DHT22;9121;50.926;5.340;2022-12-18T03:17:55;-4.30;99.90
17992;DHT22;9121;50.926;5.340;2022-12-18T03:20:26;-4.50;99.90
17992;DHT22;9121;50.926;5.340;2022-12-18T03:23:02;-4.60;99.90
17992;DHT22;9121;50.926;5.340;2022-12-18T03:25:31;-4.60;99.90
17992;DHT22;9121;50.926;5.340;2022-12-18T03:28:02;-4.50;99.90
17992;DHT22;9121;50.926;5.340;2022-12-18T03:30:33;-4.50;99.90
17992;DHT22;9121;50.926;5.340;2022-12-18T03:33:07;-4.50;99.90
17992;DHT22;9121;50.926;5.340;2022-12-18T03:35:38;-4.60;99.90
17992;DHT22;9121;50.926;5.340;2022-12-18T03:38:06;-4.70;99.90
17992;DHT22;9121;50.926;5.340;2022-12-18T03:40:44;-4.80;99.90
17992;DHT22;9121;50.926;5.340;2022-12-18T03:43:19;-4.80;99.90
17992;DHT22;9121;50.926;5.340;2022-12-18T03:45:51;-4.70;99.90
17992;DHT22;9121;50.926;5.340;2022-12-18T03:48:25;-4.80;99.90
17992;DHT22;9121;50.926;5.340;2022-12-18T03:50:57;-4.90;99.90
17992;DHT22;9121;50.926;5.340;2022-12-18T03:53:31;-4.90;99.90
17992;DHT22;9121;50.926;5.340;2022-12-18T03:56:00;-4.90;99.90
17992;DHT22;9121;50.926;5.340;2022-12-18T03:58:32;-4.80;99.90
17992;DHT22;9121;50.926;5.340;2022-12-18T04:01:02;-4.90;99.90
17992;DHT22;9121;50.926;5.340;2022-12-18T04:03:35;-4.90;99.90
17992;DHT22;9121;50.926;5.340;2022-12-18T04:06:03;-4.70;99.90
17992;DHT22;9121;50.926;5.340;2022-12-18T04:08:32;-4.70;99.90
17992;DHT22;9121;50.926;5.340;2022-12-18T04:11:00;-4.60;99.90
17992;DHT22;9121;50.926;5.340;2022-12-18T04:13:33;-4.60;99.90
17992;DHT22;9121;50.926;5.340;2022-12-18T04:16:00;-4.70;99.90
17992;DHT22;9121;50.926;5.340;2022-12-18T04:18:27;-4.70;99.90
17992;DHT22;9121;50.926;5.340;2022-12-18T04:20:54;-4.70;99.90
17992;DHT22;9121;50.926;5.340;2022-12-18T04:23:21;-4.80;99.90
17992;DHT22;9121;50.926;5.340;2022-12-18T04:25:48;-4.80;99.90
17992;DHT22;9121;50.926;5.340;2022-12-18T04:28:15;-4.70;99.90
17992;DHT22;9121;50.926;5.340;2022-12-18T04:30:43;-4.70;99.90
17992;DHT22;9121;50.926;5.340;2022-12-18T04:33:12;-4.60;99.90
17992;DHT22;9121;50.926;5.340;2022-12-18T04:35:39;-4.50;99.90
17992;DHT22;9121;50.926;5.340;2022-12-18T04:38:07;-4.50;99.90
17992;DHT22;9121;50.926;5.340;2022-12-18T04:40:35;-4.50;99.90
17992;DHT22;9121;50.926;5.340;2022-12-18T04:43:02;-4.50;99.90
17992;DHT22;9121;50.926;5.340;2022-12-18T04:45:30;-4.40;99.90
17992;DHT22;9121;50.926;5.340;2022-12-18T04:47:58;-4.50;99.90
17992;DHT22;9121;50.926;5.340;2022-12-18T04:50:25;-4.50;99.90
17992;DHT22;9121;50.926;5.340;2022-12-18T04:52:52;-4.30;99.90
17992;DHT22;9121;50.926;5.340;2022-12-18T04:55:20;-4.30;99.90
17992;DHT22;9121;50.926;5.340;2022-12-18T04:57:54;-4.20;99.90
17992;DHT22;9121;50.926;5.340;2022-12-18T05:00:21;-4.30;99.90
17992;DHT22;9121;50.926;5.340;2022-12-18T05:02:48;-4.30;99.90
17992;DHT22;9121;50.926;5.340;2022-12-18T05:05:17;-4.30;99.90
17992;DHT22;9121;50.926;5.340;2022-12-18T05:07:44;-4.30;99.90
17992;DHT22;9121;50.926;5.340;2022-12-18T05:10:11;-4.30;99.90
17992;DHT22;9121;50.926;5.340;2022-12-18T05:12:38;-4.30;99.90
17992;DHT22;9121;50.926;5.340;2022-12-18T05:15:24;-4.40;99.90
17992;DHT22;9121;50.926;5.340;2022-12-18T05:17:51;-4.50;99.90
17992;DHT22;9121;50.926;5.340;2022-12-18T05:20:19;-4.50;99.90
17992;DHT22;9121;50.926;5.340;2022-12-18T05:22:46;-4.50;99.90
17992;DHT22;9121;50.926;5.340;2022-12-18T05:25:14;-4.60;99.90
17992;DHT22;9121;50.926;5.340;2022-12-18T05:27:41;-4.70;99.90
17992;DHT22;9121;50.926;5.340;2022-12-18T05:30:09;-4.90;99.90
17992;DHT22;9121;50.926;5.340;2022-12-18T05:32:36;-4.90;99.90
17992;DHT22;9121;50.926;5.340;2022-12-18T05:35:05;-5.00;99.90
17992;DHT22;9121;50.926;5.340;2022-12-18T05:37:34;-5.00;99.90
17992;DHT22;9121;50.926;5.340;2022-12-18T05:40:01;-4.90;99.90
17992;DHT22;9121;50.926;5.340;2022-12-18T05:42:28;-4.90;99.90
17992;DHT22;9121;50.926;5.340;2022-12-18T05:44:55;-5.00;99.90
17992;DHT22;9121;50.926;5.340;2022-12-18T05:47:22;-5.20;99.90
17992;DHT22;9121;50.926;5.340;2022-12-18T05:49:48;-5.30;99.90
17992;DHT22;9121;50.926;5.340;2022-12-18T05:52:19;-5.40;99.90
17992;DHT22;9121;50.926;5.340;2022-12-18T05:54:47;-5.30;99.90
17992;DHT22;9121;50.926;5.340;2022-12-18T05:57:14;-5.20;99.90
17992;DHT22;9121;50.926;5.340;2022-12-18T05:59:41;-5.10;99.90
17992;DHT22;9121;50.926;5.340;2022-12-18T06:02:08;-5.10;99.90
17992;DHT22;9121;50.926;5.340;2022-12-18T06:04:35;-5.00;99.90
17992;DHT22;9121;50.926;5.340;2022-12-18T06:07:02;-5.10;99.90
17992;DHT22;9121;50.926;5.340;2022-12-18T06:09:29;-5.20;99.90
17992;DHT22;9121;50.926;5.340;2022-12-18T06:11:57;-5.20;99.90
17992;DHT22;9121;50.926;5.340;2022-12-18T06:14:24;-5.20;99.90
17992;DHT22;9121;50.926;5.340;2022-12-18T06:16:51;-5.20;99.90
17992;DHT22;9121;50.926;5.340;2022-12-18T06:19:18;-5.30;99.90
17992;DHT22;9121;50.926;5.340;2022-12-18T06:21:46;-5.30;99.90
17992;DHT22;9121;50.926;5.340;2022-12-18T06:24:13;-5.40;99.90
17992;DHT22;9121;50.926;5.340;2022-12-18T06:26:40;-5.40;99.90
17992;DHT22;9121;50.926;5.340;2022-12-18T06:29:08;-5.40;99.90
17992;DHT22;9121;50.926;5.340;2022-12-18T06:31:35;-5.40;99.90
17992;DHT22;9121;50.926;5.340;2022-12-18T06:34:03;-5.50;99.90
17992;DHT22;9121;50.926;5.340;2022-12-18T06:36:30;-5.50;99.90
17992;DHT22;9121;50.926;5.340;2022-12-18T06:38:57;-5.60;99.90
17992;DHT22;9121;50.926;5.340;2022-12-18T06:41:24;-5.60;99.90
17992;DHT22;9121;50.926;5.340;2022-12-18T06:43:51;-5.70;99.90
17992;DHT22;9121;50.926;5.340;2022-12-18T06:46:19;-5.70;99.90
17992;DHT22;9121;50.926;5.340;2022-12-18T06:48:49;-5.60;99.90
17992;DHT22;9121;50.926;5.340;2022-12-18T06:51:20;-5.60;99.90
17992;DHT22;9121;50.926;5.340;2022-12-18T06:53:48;-5.60;99.90
17992;DHT22;9121;50.926;5.340;2022-12-18T06:56:15;-5.60;99.90
17992;DHT22;9121;50.926;5.340;2022-12-18T06:58:42;-5.60;99.90
17992;DHT22;9121;50.926;5.340;2022-12-18T07:01:10;-5.60;99.90
17992;DHT22;9121;50.926;5.340;2022-12-18T07:03:39;-5.60;99.90
17992;DHT22;9121;50.926;5.340;2022-12-18T07:06:13;-5.50;99.90
17992;DHT22;9121;50.926;5.340;2022-12-18T07:08:40;-5.50;99.90
17992;DHT22;9121;50.926;5.340;2022-12-18T07:11:07;-5.60;99.90
17992;DHT22;9121;50.926;5.340;2022-12-18T07:13:34;-5.60;99.90
17992;DHT22;9121;50.926;5.340;2022-12-18T07:16:09;-5.60;99.90
17992;DHT22;9121;50.926;5.340;2022-12-18T07:18:36;-5.70;99.90
17992;DHT22;9121;50.926;5.340;2022-12-18T07:21:06;-5.70;99.90
17992;DHT22;9121;50.926;5.340;2022-12-18T07:23:34;-5.60;99.90
17992;DHT22;9121;50.926;5.340;2022-12-18T07:26:02;-5.70;99.90
17992;DHT22;9121;50.926;5.340;2022-12-18T07:28:30;-5.70;99.90
17992;DHT22;9121;50.926;5.340;2022-12-18T07:30:58;-5.80;99.90
17992;DHT22;9121;50.926;5.340;2022-12-18T07:33:26;-5.90;99.90
17992;DHT22;9121;50.926;5.340;2022-12-18T07:35:52;-5.90;99.90
17992;DHT22;9121;50.926;5.340;2022-12-18T07:38:21;-5.90;99.90
17992;DHT22;9121;50.926;5.340;2022-12-18T07:40:48;-5.90;99.90
17992;DHT22;9121;50.926;5.340;2022-12-18T07:43:15;-5.70;99.90
17992;DHT22;9121;50.926;5.340;2022-12-18T07:45:42;-5.60;99.90
17992;DHT22;9121;50.926;5.340;2022-12-18T07:48:09;-5.60;99.90
17992;DHT22;9121;50.926;5.340;2022-12-18T07:50:36;-5.60;99.90
17992;DHT22;9121;50.926;5.340;2022-12-18T07:53:03;-5.50;99.90
17992;DHT22;9121;50.926;5.340;2022-12-18T07:55:32;-5.50;99.90
17992;DHT22;9121;50.926;5.340;2022-12-18T07:58:01;-5.40;99.90
17992;DHT22;9121;50.926;5.340;2022-12-18T08:00:29;-5.30;99.90
17992;DHT22;9121;50.926;5.340;2022-12-18T08:02:56;-5.20;99.90
17992;DHT22;9121;50.926;5.340;2022-12-18T08:05:23;-5.10;99.90
17992;DHT22;9121;50.926;5.340;2022-12-18T08:07:50;-5.10;99.90
17992;DHT22;9121;50.926;5.340;2022-12-18T08:10:17;-5.00;99.90
17992;DHT22;9121;50.926;5.340;2022-12-18T08:12:48;-5.00;99.90
17992;DHT22;9121;50.926;5.340;2022-12-18T08:15:15;-5.00;99.90
17992;DHT22;9121;50.926;5.340;2022-12-18T08:17:42;-5.00;99.90
17992;DHT22;9121;50.926;5.340;2022-12-18T08:20:10;-5.00;99.90
17992;DHT22;9121;50.926;5.340;2022-12-18T08:22:41;-5.00;99.90
17992;DHT22;9121;50.926;5.340;2022-12-18T08:25:08;-5.00;99.90
17992;DHT22;9121;50.926;5.340;2022-12-18T08:27:35;-4.90;99.90
17992;DHT22;9121;50.926;5.340;2022-12-18T08:30:04;-4.90;99.90
17992;DHT22;9121;50.926;5.340;2022-12-18T08:32:31;-4.90;99.90
17992;DHT22;9121;50.926;5.340;2022-12-18T08:34:59;-4.90;99.90
17992;DHT22;9121;50.926;5.340;2022-12-18T08:37:26;-4.80;99.90
17992;DHT22;9121;50.926;5.340;2022-12-18T08:39:53;-4.80;99.90
17992;DHT22;9121;50.926;5.340;2022-12-18T08:42:20;-4.80;99.90
17992;DHT22;9121;50.926;5.340;2022-12-18T08:45:07;-4.80;99.90
17992;DHT22;9121;50.926;5.340;2022-12-18T08:47:34;-4.80;99.90
17992;DHT22;9121;50.926;5.340;2022-12-18T08:50:01;-4.80;99.90
17992;DHT22;9121;50.926;5.340;2022-12-18T08:52:28;-4.70;99.90
17992;DHT22;9121;50.926;5.340;2022-12-18T08:54:57;-4.70;99.90
17992;DHT22;9121;50.926;5.340;2022-12-18T08:57:24;-4.60;99.90
17992;DHT22;9121;50.926;5.340;2022-12-18T08:59:51;-4.60;99.90
17992;DHT22;9121;50.926;5.340;2022-12-18T09:02:20;-4.50;99.90
17992;DHT22;9121;50.926;5.340;2022-12-18T09:04:47;-4.40;99.90
17992;DHT22;9121;50.926;5.340;2022-12-18T09:07:14;-4.50;99.90
17992;DHT22;9121;50.926;5.340;2022-12-18T09:09:41;-4.40;99.90
17992;DHT22;9121;50.926;5.340;2022-12-18T09:12:08;-4.40;99.90
17992;DHT22;9121;50.926;5.340;2022-12-18T09:14:35;-4.10;99.90
17992;DHT22;9121;50.926;5.340;2022-12-18T09:17:02;-4.10;99.90
17992;DHT22;9121;50.926;5.340;2022-12-18T09:19:31;-4.10;99.90
17992;DHT22;9121;50.926;5.340;2022-12-18T09:21:58;-4.00;99.90
17992;DHT22;9121;50.926;5.340;2022-12-18T09:24:25;-3.90;99.90
17992;DHT22;9121;50.926;5.340;2022-12-18T09:26:53;-3.90;99.90
17992;DHT22;9121;50.926;5.340;2022-12-18T09:29:21;-3.80;99.90
17992;DHT22;9121;50.926;5.340;2022-12-18T09:31:49;-3.70;99.90
17992;DHT22;9121;50.926;5.340;2022-12-18T09:34:16;-3.70;99.90
17992;DHT22;9121;50.926;5.340;2022-12-18T09:36:45;-3.70;99.90
17992;DHT22;9121;50.926;5.340;2022-12-18T09:39:12;-3.70;99.90
17992;DHT22;9121;50.926;5.340;2022-12-18T09:41:45;-3.60;99.90
17992;DHT22;9121;50.926;5.340;2022-12-18T09:44:25;-3.60;99.90
17992;DHT22;9121;50.926;5.340;2022-12-18T09:47:01;-3.50;99.90
17992;DHT22;9121;50.926;5.340;2022-12-18T09:49:30;-3.60;99.90
17992;DHT22;9121;50.926;5.340;2022-12-18T09:52:05;-3.50;99.90
17992;DHT22;9121;50.926;5.340;2022-12-18T09:54:38;-3.40;99.90
17992;DHT22;9121;50.926;5.340;2022-12-18T09:57:13;-3.20;99.90
17992;DHT22;9121;50.926;5.340;2022-12-18T09:59:42;-3.10;99.90
17992;DHT22;9121;50.926;5.340;2022-12-18T10:02:18;-3.00;99.90
17992;DHT22;9121;50.926;5.340;2022-12-18T10:04:58;-2.90;99.90
17992;DHT22;9121;50.926;5.340;2022-12-18T10:07:39;-2.90;99.90
17992;DHT22;9121;50.926;5.340;2022-12-18T10:10:14;-2.80;99.90
17992;DHT22;9121;50.926;5.340;2022-12-18T10:12:48;-2.80;99.90
17992;DHT22;9121;50.926;5.340;2022-12-18T10:15:26;-2.70;99.90
17992;DHT22;9121;50.926;5.340;2022-12-18T10:18:00;-2.60;99.90
17992;DHT22;9121;50.926;5.340;2022-12-18T10:20:33;-2.60;99.90
17992;DHT22;9121;50.926;5.340;2022-12-18T10:23:08;-2.60;99.90
17992;DHT22;9121;50.926;5.340;2022-12-18T10:25:53;-2.50;99.90
17992;DHT22;9121;50.926;5.340;2022-12-18T10:28:23;-2.60;99.90
17992;DHT22;9121;50.926;5.340;2022-12-18T10:30:51;-2.50;99.90
17992;DHT22;9121;50.926;5.340;2022-12-18T10:33:20;-2.50;99.90
17992;DHT22;9121;50.926;5.340;2022-12-18T10:35:48;-2.40;99.90
17992;DHT22;9121;50.926;5.340;2022-12-18T10:38:27;-2.30;99.90
17992;DHT22;9121;50.926;5.340;2022-12-18T10:40:56;-2.30;99.90
17992;DHT22;9121;50.926;5.340;2022-12-18T10:43:26;-2.20;99.90
17992;DHT22;9121;50.926;5.340;2022-12-18T10:46:03;-2.10;99.90
17992;DHT22;9121;50.926;5.340;2022-12-18T10:48:33;-2.00;99.90
17992;DHT22;9121;50.926;5.340;2022-12-18T10:51:00;-2.00;99.90
17992;DHT22;9121;50.926;5.340;2022-12-18T10:53:30;-2.00;99.90
17992;DHT22;9121;50.926;5.340;2022-12-18T10:55:58;-2.10;99.90
17992;DHT22;9121;50.926;5.340;2022-12-18T10:58:27;-2.10;99.90
17992;DHT22;9121;50.926;5.340;2022-12-18T11:01:06;-2.10;99.90
17992;DHT22;9121;50.926;5.340;2022-12-18T11:03:35;-2.20;99.90
17992;DHT22;9121;50.926;5.340;2022-12-18T11:06:05;-2.10;99.90
17992;DHT22;9121;50.926;5.340;2022-12-18T11:08:34;-2.00;99.90
17992;DHT22;9121;50.926;5.340;2022-12-18T11:11:01;-1.90;99.90
17992;DHT22;9121;50.926;5.340;2022-12-18T11:13:30;-1.90;99.90
17992;DHT22;9121;50.926;5.340;2022-12-18T11:15:57;-1.80;99.90
17992;DHT22;9121;50.926;5.340;2022-12-18T11:18:27;-1.80;99.90
17992;DHT22;9121;50.926;5.340;2022-12-18T11:20:56;-1.70;99.90
17992;DHT22;9121;50.926;5.340;2022-12-18T11:23:24;-1.60;99.90
17992;DHT22;9121;50.926;5.340;2022-12-18T11:25:55;-1.60;99.90
17992;DHT22;9121;50.926;5.340;2022-12-18T11:28:33;-1.50;99.90
17992;DHT22;9121;50.926;5.340;2022-12-18T11:31:17;-1.50;99.90
17992;DHT22;9121;50.926;5.340;2022-12-18T11:33:46;-1.40;99.90
17992;DHT22;9121;50.926;5.340;2022-12-18T11:36:16;-1.30;99.90
17992;DHT22;9121;50.926;5.340;2022-12-18T11:38:44;-1.30;99.90
17992;DHT22;9121;50.926;5.340;2022-12-18T11:41:21;-1.00;99.90
17992;DHT22;9121;50.926;5.340;2022-12-18T11:44:13;-0.90;99.90
17992;DHT22;9121;50.926;5.340;2022-12-18T11:46:47;-0.90;99.90
17992;DHT22;9121;50.926;5.340;2022-12-18T11:49:21;-0.80;99.90
17992;DHT22;9121;50.926;5.340;2022-12-18T11:51:53;-0.90;99.90
17992;DHT22;9121;50.926;5.340;2022-12-18T11:54:22;-0.80;99.90
17992;DHT22;9121;50.926;5.340;2022-12-18T11:56:55;-0.80;99.90
17992;DHT22;9121;50.926;5.340;2022-12-18T11:59:30;-0.70;99.90
17992;DHT22;9121;50.926;5.340;2022-12-18T12:02:12;-0.70;99.90
17992;DHT22;9121;50.926;5.340;2022-12-18T12:04:56;-0.70;99.90
17992;DHT22;9121;50.926;5.340;2022-12-18T12:07:35;-0.60;99.90
17992;DHT22;9121;50.926;5.340;2022-12-18T12:10:14;-0.60;99.90
17992;DHT22;9121;50.926;5.340;2022-12-18T12:12:55;-0.40;99.90
17992;DHT22;9121;50.926;5.340;2022-12-18T12:15:32;-0.30;99.90
17992;DHT22;9121;50.926;5.340;2022-12-18T12:18:08;-0.10;99.90
17992;DHT22;9121;50.926;5.340;2022-12-18T12:20:49;0.00;99.90
17992;DHT22;9121;50.926;5.340;2022-12-18T12:23:26;-0.20;99.90
17992;DHT22;9121;50.926;5.340;2022-12-18T12:26:03;-0.30;99.90
17992;DHT22;9121;50.926;5.340;2022-12-18T12:28:50;-0.30;99.90
17992;DHT22;9121;50.926;5.340;2022-12-18T12:31:26;-0.20;99.90
17992;DHT22;9121;50.926;5.340;2022-12-18T12:34:04;-0.20;99.90
17992;DHT22;9121;50.926;5.340;2022-12-18T12:36:44;-0.30;99.90
17992;DHT22;9121;50.926;5.340;2022-12-18T12:39:19;-0.20;99.90
17992;DHT22;9121;50.926;5.340;2022-12-18T12:41:47;-0.20;99.90
17992;DHT22;9121;50.926;5.340;2022-12-18T12:44:35;-0.10;99.90
17992;DHT22;9121;50.926;5.340;2022-12-18T12:47:13;-0.10;99.90
17992;DHT22;9121;50.926;5.340;2022-12-18T12:49:42;-0.10;99.90
17992;DHT22;9121;50.926;5.340;2022-12-18T12:52:16;0.00;99.90
17992;DHT22;9121;50.926;5.340;2022-12-18T12:54:44;0.00;99.90
17992;DHT22;9121;50.926;5.340;2022-12-18T12:57:15;0.00;99.90
17992;DHT22;9121;50.926;5.340;2022-12-18T12:59:49;0.10;99.90
17992;DHT22;9121;50.926;5.340;2022-12-18T13:02:22;0.10;99.90
17992;DHT22;9121;50.926;5.340;2022-12-18T13:04:56;0.10;99.90
17992;DHT22;9121;50.926;5.340;2022-12-18T13:07:29;0.20;99.90
17992;DHT22;9121;50.926;5.340;2022-12-18T13:12:57;0.10;99.90
17992;DHT22;9121;50.926;5.340;2022-12-18T13:15:29;0.20;99.90
17992;DHT22;9121;50.926;5.340;2022-12-18T13:18:05;0.30;99.90
17992;DHT22;9121;50.926;5.340;2022-12-18T13:20:34;0.30;99.90
17992;DHT22;9121;50.926;5.340;2022-12-18T13:23:04;0.40;99.90
17992;DHT22;9121;50.926;5.340;2022-12-18T13:25:45;0.40;99.90
17992;DHT22;9121;50.926;5.340;2022-12-18T13:28:13;0.50;99.90
17992;DHT22;9121;50.926;5.340;2022-12-18T13:30:49;0.40;99.90
17992;DHT22;9121;50.926;5.340;2022-12-18T13:33:49;0.40;99.90
17992;DHT22;9121;50.926;5.340;2022-12-18T13:36:33;0.40;99.90
17992;DHT22;9121;50.926;5.340;2022-12-18T13:39:31;0.40;99.90
17992;DHT22;9121;50.926;5.340;2022-12-18T13:45:44;0.40;99.90
17992;DHT22;9121;50.926;5.340;2022-12-18T13:48:17;0.60;99.90
17992;DHT22;9121;50.926;5.340;2022-12-18T13:50:52;0.80;99.90
17992;DHT22;9121;50.926;5.340;2022-12-18T13:53:22;0.90;99.90
17992;DHT22;9121;50.926;5.340;2022-12-18T13:55:50;0.80;99.90
17992;DHT22;9121;50.926;5.340;2022-12-18T13:58:17;0.70;99.90
17992;DHT22;9121;50.926;5.340;2022-12-18T14:00:46;0.60;99.90
17992;DHT22;9121;50.926;5.340;2022-12-18T14:03:22;0.60;99.90
17992;DHT22;9121;50.926;5.340;2022-12-18T14:05:59;0.60;99.90
17992;DHT22;9121;50.926;5.340;2022-12-18T14:08:32;0.60;99.90
17992;DHT22;9121;50.926;5.340;2022-12-18T14:11:00;0.60;99.90
17992;DHT22;9121;50.926;5.340;2022-12-18T14:13:30;0.60;99.90
17992;DHT22;9121;50.926;5.340;2022-12-18T14:16:00;0.60;99.90
17992;DHT22;9121;50.926;5.340;2022-12-18T14:18:33;0.70;99.90
17992;DHT22;9121;50.926;5.340;2022-12-18T14:21:04;0.70;99.90
17992;DHT22;9121;50.926;5.340;2022-12-18T14:23:34;0.70;99.90
17992;DHT22;9121;50.926;5.340;2022-12-18T14:26:02;0.70;99.90
17992;DHT22;9121;50.926;5.340;2022-12-18T14:28:30;0.70;99.90
17992;DHT22;9121;50.926;5.340;2022-12-18T14:30:59;0.70;99.90
17992;DHT22;9121;50.926;5.340;2022-12-18T14:33:27;0.70;99.90
17992;DHT22;9121;50.926;5.340;2022-12-18T14:35:56;0.80;99.90
17992;DHT22;9121;50.926;5.340;2022-12-18T14:38:26;0.90;99.90
17992;DHT22;9121;50.926;5.340;2022-12-18T14:40:56;0.90;99.90
17992;DHT22;9121;50.926;5.340;2022-12-18T14:43:23;0.90;99.90
17992;DHT22;9121;50.926;5.340;2022-12-18T14:45:51;1.00;99.90
17992;DHT22;9121;50.926;5.340;2022-12-18T14:48:21;1.00;99.90
17992;DHT22;9121;50.926;5.340;2022-12-18T14:51:00;0.90;99.90
17992;DHT22;9121;50.926;5.340;2022-12-18T14:53:34;0.90;99.90
17992;DHT22;9121;50.926;5.340;2022-12-18T14:56:02;0.90;99.90
17992;DHT22;9121;50.926;5.340;2022-12-18T14:58:30;0.90;99.90
17992;DHT22;9121;50.926;5.340;2022-12-18T15:00:57;0.90;99.90
17992;DHT22;9121;50.926;5.340;2022-12-18T15:03:25;0.90;99.90
17992;DHT22;9121;50.926;5.340;2022-12-18T15:05:52;0.90;99.90
17992;DHT22;9121;50.926;5.340;2022-12-18T15:08:30;0.90;99.90
17992;DHT22;9121;50.926;5.340;2022-12-18T15:10:57;0.90;99.90
17992;DHT22;9121;50.926;5.340;2022-12-18T15:13:24;0.80;99.90
17992;DHT22;9121;50.926;5.340;2022-12-18T15:15:52;0.80;99.90
17992;DHT22;9121;50.926;5.340;2022-12-18T15:18:22;0.80;99.90
17992;DHT22;9121;50.926;5.340;2022-12-18T15:20:53;0.70;99.90
17992;DHT22;9121;50.926;5.340;2022-12-18T15:23:22;0.70;99.90
17992;DHT22;9121;50.926;5.340;2022-12-18T15:25:55;0.70;99.90
17992;DHT22;9121;50.926;5.340;2022-12-18T15:28:25;0.70;99.90
17992;DHT22;9121;50.926;5.340;2022-12-18T15:31:00;0.70;99.90
17992;DHT22;9121;50.926;5.340;2022-12-18T15:33:31;0.70;99.90
17992;DHT22;9121;50.926;5.340;2022-12-18T15:36:01;0.70;99.90
17992;DHT22;9121;50.926;5.340;2022-12-18T15:38:28;0.70;99.90
17992;DHT22;9121;50.926;5.340;2022-12-18T15:40:55;0.70;99.90
17992;DHT22;9121;50.926;5.340;2022-12-18T15:43:24;0.80;99.90
17992;DHT22;9121;50.926;5.340;2022-12-18T15:46:05;0.90;99.90
17992;DHT22;9121;50.926;5.340;2022-12-18T15:48:33;0.80;99.90
17992;DHT22;9121;50.926;5.340;2022-12-18T15:51:02;0.80;99.90
17992;DHT22;9121;50.926;5.340;2022-12-18T15:53:31;0.90;99.90
17992;DHT22;9121;50.926;5.340;2022-12-18T15:55:58;0.90;99.90
17992;DHT22;9121;50.926;5.340;2022-12-18T15:58:43;1.00;99.90
17992;DHT22;9121;50.926;5.340;2022-12-18T16:01:10;0.90;99.90
17992;DHT22;9121;50.926;5.340;2022-12-18T16:03:38;1.00;99.90
17992;DHT22;9121;50.926;5.340;2022-12-18T16:06:07;1.00;99.90
17992;DHT22;9121;50.926;5.340;2022-12-18T16:08:35;1.00;99.90
17992;DHT22;9121;50.926;5.340;2022-12-18T16:11:02;1.10;99.90
17992;DHT22;9121;50.926;5.340;2022-12-18T16:13:29;1.10;99.90
17992;DHT22;9121;50.926;5.340;2022-12-18T16:15:56;1.10;99.90
17992;DHT22;9121;50.926;5.340;2022-12-18T16:18:23;1.20;99.90